Time;durP1;ratioP1;P1;durP2;ratioP2;P2;SDS_P1;SDS_P2;PMS_P1;PMS_P2;Temp;Humidity;BMP_temperature;BMP_pressure;BME280_temperature;BME280_humidity;BME280_pressure;Samples;Min_cycle;Max_cycle;Signal;HPM_P1;HPM_P2
2021/01/18 00:01:20;;;;;;;79.00;40.10;;;;;;;;;;5072930;28;20028;-72
2021/01/18 00:03:46;;;;;;;71.18;37.70;;;;;;;;;;5072994;28;20028;-71
2021/01/18 00:06:15;;;;;;;72.00;36.60;;;;;;;;;;5071522;28;20044;-72
2021/01/18 00:08:42;;;;;;;67.38;35.45;;;;;;;;;;5072778;28;20447;-71
2021/01/18 00:11:08;;;;;;;71.28;36.17;;;;;;;;;;5072617;28;20097;-72
2021/01/18 00:13:33;;;;;;;62.17;34.17;;;;;;;;;;5091293;28;20032;-71
2021/01/18 00:15:59;;;;;;;66.45;35.35;;;;;;;;;;5092875;28;20036;-72
2021/01/18 00:18:24;;;;;;;69.43;34.65;;;;;;;;;;5091923;28;20047;-71
2021/01/18 00:20:49;;;;;;;61.03;32.72;;;;;;;;;;5096545;28;20040;-72
2021/01/18 00:23:15;;;;;;;61.75;34.28;;;;;;;;;;5096624;28;20044;-72
2021/01/18 00:25:40;;;;;;;59.83;32.25;;;;;;;;;;5096811;28;20032;-72
2021/01/18 00:28:05;;;;;;;68.68;36.20;;;;;;;;;;5096642;28;20040;-72
2021/01/18 00:30:31;;;;;;;71.63;36.15;;;;;;;;;;5095389;28;20461;-72
2021/01/18 00:32:58;;;;;;;67.65;35.55;;;;;;;;;;5096656;28;20112;-72
2021/01/18 00:35:25;;;;;;;70.30;38.92;;;;;;;;;;5096414;28;20056;-72
2021/01/18 00:37:52;;;;;;;64.20;34.17;;;;;;;;;;5096562;28;20042;-72
2021/01/18 00:40:22;;;;;;;64.43;34.85;;;;;;;;;;5096494;28;20064;-72
2021/01/18 00:42:48;;;;;;;60.50;33.55;;;;;;;;;;5096424;28;20067;-72
2021/01/18 00:45:18;;;;;;;60.65;32.90;;;;;;;;;;5094820;28;20525;-72
2021/01/18 00:47:44;;;;;;;54.35;31.13;;;;;;;;;;5096084;28;20031;-72
2021/01/18 00:50:12;;;;;;;54.28;30.73;;;;;;;;;;5094549;28;20498;-71
2021/01/18 00:52:42;;;;;;;58.22;31.80;;;;;;;;;;5094885;28;20036;-72
2021/01/18 00:55:11;;;;;;;59.03;31.92;;;;;;;;;;5078371;28;20036;-72
2021/01/18 00:57:51;;;;;;;64.85;32.10;;;;;;;;;;5094839;28;20351;-72
2021/01/18 01:00:22;;;;;;;67.05;36.33;;;;;;;;;;5096095;28;20118;-72
2021/01/18 01:02:50;;;;;;;66.18;35.15;;;;;;;;;;5077912;28;20032;-72
2021/01/18 01:05:18;;;;;;;66.80;36.22;;;;;;;;;;5094469;28;20032;-72
2021/01/18 01:07:45;;;;;;;70.32;36.78;;;;;;;;;;5095986;28;20032;-72
2021/01/18 01:10:14;;;;;;;61.05;33.30;;;;;;;;;;5095932;28;20166;-72
2021/01/18 01:12:40;;;;;;;61.95;35.75;;;;;;;;;;5095583;28;20032;-71
2021/01/18 01:15:08;;;;;;;66.50;37.75;;;;;;;;;;5095750;28;20055;-72
2021/01/18 01:17:42;;;;;;;59.38;34.80;;;;;;;;;;5095479;28;20032;-72
2021/01/18 01:20:10;;;;;;;62.35;33.97;;;;;;;;;;5077302;28;20230;-72
2021/01/18 01:22:35;;;;;;;59.30;32.25;;;;;;;;;;5095706;28;20134;-72
2021/01/18 01:25:01;;;;;;;58.78;32.80;;;;;;;;;;5094354;28;20117;-72
2021/01/18 01:27:26;;;;;;;60.70;35.53;;;;;;;;;;5095473;28;20388;-72
2021/01/18 01:29:52;;;;;;;60.75;32.95;;;;;;;;;;5095210;28;20035;-72
2021/01/18 01:32:17;;;;;;;64.97;33.97;;;;;;;;;;5095563;28;20123;-72
2021/01/18 01:34:42;;;;;;;55.08;32.10;;;;;;;;;;5095084;28;20075;-72
2021/01/18 01:37:08;;;;;;;58.83;32.78;;;;;;;;;;5094065;28;20031;-72
2021/01/18 01:39:33;;;;;;;63.08;34.97;;;;;;;;;;5095419;28;20416;-71
2021/01/18 01:41:58;;;;;;;61.88;34.25;;;;;;;;;;5095322;28;20415;-72
2021/01/18 01:44:24;;;;;;;62.63;33.25;;;;;;;;;;5095095;28;20080;-72
2021/01/18 01:46:49;;;;;;;67.97;34.05;;;;;;;;;;5095156;28;20118;-72
2021/01/18 01:49:14;;;;;;;65.88;34.15;;;;;;;;;;5094949;28;20077;-72
2021/01/18 01:51:41;;;;;;;60.15;33.75;;;;;;;;;;5094879;28;20028;-72
2021/01/18 01:54:07;;;;;;;64.47;34.92;;;;;;;;;;5095122;28;20035;-72
2021/01/18 01:56:32;;;;;;;59.47;34.08;;;;;;;;;;5094969;28;20036;-72
2021/01/18 01:58:59;;;;;;;63.22;33.53;;;;;;;;;;5094901;28;20047;-72
2021/01/18 02:01:25;;;;;;;54.50;32.15;;;;;;;;;;5094782;28;20126;-72
2021/01/18 02:03:56;;;;;;;60.53;32.03;;;;;;;;;;5094735;28;20075;-72
2021/01/18 02:06:21;;;;;;;55.50;31.95;;;;;;;;;;5094548;28;20077;-71
2021/01/18 02:08:46;;;;;;;62.95;33.63;;;;;;;;;;5094705;28;20504;-72
2021/01/18 02:11:13;;;;;;;67.82;34.70;;;;;;;;;;5094727;28;20177;-72
2021/01/18 02:13:54;;;;;;;59.47;33.35;;;;;;;;;;5094427;28;20047;-72
2021/01/18 02:16:26;;;;;;;59.33;32.92;;;;;;;;;;5094704;28;20524;-72
2021/01/18 02:19:00;;;;;;;61.60;32.47;;;;;;;;;;5094584;28;20035;-72
2021/01/18 02:21:57;;;;;;;60.70;31.73;;;;;;;;;;5094371;28;20504;-72
2021/01/18 02:24:40;;;;;;;55.88;31.50;;;;;;;;;;5094517;28;20028;-72
2021/01/18 02:27:30;;;;;;;57.65;32.40;;;;;;;;;;5094391;28;20028;-72
2021/01/18 02:30:23;;;;;;;59.75;30.35;;;;;;;;;;5094451;28;20042;-72
2021/01/18 02:33:19;;;;;;;56.90;31.30;;;;;;;;;;5094246;28;20040;-72
2021/01/18 02:35:59;;;;;;;57.85;31.42;;;;;;;;;;5093710;28;20043;-71
2021/01/18 02:38:47;;;;;;;58.10;31.92;;;;;;;;;;5094102;28;20043;-72
2021/01/18 02:41:45;;;;;;;52.38;31.08;;;;;;;;;;5093766;28;20032;-72
2021/01/18 02:44:15;;;;;;;55.22;30.90;;;;;;;;;;5093843;28;20060;-72
2021/01/18 02:46:45;;;;;;;60.20;33.03;;;;;;;;;;5094177;28;20039;-72
2021/01/18 02:49:11;;;;;;;57.30;32.30;;;;;;;;;;5093949;28;20381;-72
2021/01/18 02:51:41;;;;;;;62.05;32.42;;;;;;;;;;5093952;28;20400;-71
2021/01/18 02:54:07;;;;;;;55.47;31.42;;;;;;;;;;5093617;28;20116;-72
2021/01/18 02:56:33;;;;;;;66.28;35.67;;;;;;;;;;5093887;28;20115;-72
2021/01/18 02:59:00;;;;;;;69.85;36.30;;;;;;;;;;5093962;28;20028;-72
2021/01/18 03:01:47;;;;;;;73.88;35.42;;;;;;;;;;5093900;28;20088;-72
2021/01/18 03:04:23;;;;;;;79.22;36.83;;;;;;;;;;5093276;28;20172;-72
2021/01/18 03:07:17;;;;;;;70.07;34.13;;;;;;;;;;5093371;28;20040;-72
2021/01/18 03:09:50;;;;;;;66.95;34.50;;;;;;;;;;5090959;28;20142;-74
2021/01/18 03:12:22;;;;;;;64.22;33.80;;;;;;;;;;5092363;28;20040;-72
2021/01/18 03:14:50;;;;;;;75.28;36.75;;;;;;;;;;5092170;28;20047;-72
2021/01/18 03:17:20;;;;;;;67.82;35.08;;;;;;;;;;5093620;28;20035;-72
2021/01/18 03:19:46;;;;;;;63.65;33.72;;;;;;;;;;5093542;28;20032;-71
2021/01/18 03:22:27;;;;;;;56.05;31.05;;;;;;;;;;5093368;28;20484;-71
2021/01/18 03:24:58;;;;;;;59.63;32.30;;;;;;;;;;5092320;28;20032;-71
2021/01/18 03:27:23;;;;;;;61.15;30.73;;;;;;;;;;5093489;28;20036;-72
2021/01/18 03:29:49;;;;;;;54.50;30.08;;;;;;;;;;5093343;28;20177;-72
2021/01/18 03:32:15;;;;;;;54.05;29.98;;;;;;;;;;5093186;28;20032;-71
2021/01/18 03:34:40;;;;;;;55.40;30.88;;;;;;;;;;5093368;28;20047;-72
2021/01/18 03:37:05;;;;;;;59.35;30.52;;;;;;;;;;5093051;28;20051;-72
2021/01/18 03:39:30;;;;;;;57.38;31.75;;;;;;;;;;5093192;28;20381;-72
2021/01/18 03:41:56;;;;;;;71.05;36.08;;;;;;;;;;5093111;28;20078;-72
2021/01/18 03:44:21;;;;;;;58.60;31.27;;;;;;;;;;5093072;28;20478;-72
2021/01/18 03:46:47;;;;;;;57.92;30.50;;;;;;;;;;5093346;28;20036;-71
2021/01/18 03:49:13;;;;;;;56.80;30.55;;;;;;;;;;5093056;28;20032;-72
2021/01/18 03:51:39;;;;;;;64.63;31.75;;;;;;;;;;5093033;28;20462;-72
2021/01/18 03:54:05;;;;;;;57.20;30.80;;;;;;;;;;5093387;28;20036;-73
2021/01/18 03:56:30;;;;;;;57.22;31.73;;;;;;;;;;5097353;28;20522;-72
2021/01/18 03:58:55;;;;;;;56.53;30.80;;;;;;;;;;5097392;28;20032;-71
2021/01/18 04:01:21;;;;;;;54.42;31.17;;;;;;;;;;5097361;28;20039;-71
2021/01/18 04:03:46;;;;;;;51.58;29.58;;;;;;;;;;5097328;28;20134;-71
2021/01/18 04:06:11;;;;;;;53.08;29.02;;;;;;;;;;5096706;28;20355;-71
2021/01/18 04:08:37;;;;;;;57.30;30.98;;;;;;;;;;5097203;28;20069;-71
2021/01/18 04:11:05;;;;;;;55.40;30.25;;;;;;;;;;5096959;28;20062;-71
2021/01/18 04:13:31;;;;;;;57.30;29.80;;;;;;;;;;5096894;28;20119;-71
2021/01/18 04:15:56;;;;;;;49.10;28.55;;;;;;;;;;5097115;28;20039;-71
2021/01/18 04:18:21;;;;;;;48.67;26.88;;;;;;;;;;5097057;28;20032;-71
2021/01/18 04:20:47;;;;;;;50.60;27.70;;;;;;;;;;5096609;28;20040;-71
2021/01/18 04:23:12;;;;;;;52.85;28.67;;;;;;;;;;5096763;28;20554;-71
2021/01/18 04:25:38;;;;;;;48.35;27.13;;;;;;;;;;5096765;28;20032;-72
2021/01/18 04:28:05;;;;;;;51.95;28.10;;;;;;;;;;5096802;28;20097;-71
2021/01/18 04:30:35;;;;;;;47.80;27.50;;;;;;;;;;5096757;28;20036;-71
2021/01/18 04:33:06;;;;;;;64.88;32.10;;;;;;;;;;5096653;28;20050;-71
2021/01/18 04:35:35;;;;;;;54.03;29.67;;;;;;;;;;5096236;28;20115;-71
2021/01/18 04:38:01;;;;;;;69.35;32.90;;;;;;;;;;5096582;28;20060;-71
2021/01/18 04:40:28;;;;;;;59.72;31.45;;;;;;;;;;5096466;28;20437;-71
2021/01/18 04:42:54;;;;;;;75.40;36.22;;;;;;;;;;5096483;28;20020;-71
2021/01/18 04:45:21;;;;;;;57.03;30.65;;;;;;;;;;5096384;28;20081;-71
2021/01/18 04:47:49;;;;;;;56.05;29.80;;;;;;;;;;5096303;28;20039;-71
2021/01/18 04:50:15;;;;;;;55.42;28.77;;;;;;;;;;5094963;28;20374;-71
2021/01/18 04:52:44;;;;;;;54.72;28.83;;;;;;;;;;5096295;28;20477;-71
2021/01/18 04:55:22;;;;;;;64.32;32.65;;;;;;;;;;5096265;28;20078;-71
2021/01/18 04:58:03;;;;;;;71.47;31.95;;;;;;;;;;5096318;28;20528;-71
2021/01/18 05:00:34;;;;;;;74.00;34.20;;;;;;;;;;5096135;28;20040;-71
2021/01/18 05:03:06;;;;;;;76.43;34.55;;;;;;;;;;5094700;28;20070;-71
2021/01/18 05:05:37;;;;;;;72.18;33.92;;;;;;;;;;5095212;28;20088;-71
2021/01/18 05:08:03;;;;;;;63.58;30.73;;;;;;;;;;5095955;28;20552;-71
2021/01/18 05:10:30;;;;;;;58.38;28.45;;;;;;;;;;5096069;28;20161;-71
2021/01/18 05:13:02;;;;;;;53.45;28.20;;;;;;;;;;5095834;28;20386;-71
2021/01/18 05:15:28;;;;;;;55.42;28.33;;;;;;;;;;5096011;28;20054;-71
2021/01/18 05:17:58;;;;;;;50.28;26.42;;;;;;;;;;5095789;28;20477;-71
2021/01/18 05:20:24;;;;;;;47.25;26.17;;;;;;;;;;5095490;28;20085;-71
2021/01/18 05:22:51;;;;;;;46.22;25.10;;;;;;;;;;5094582;28;20424;-71
2021/01/18 05:25:17;;;;;;;53.15;28.35;;;;;;;;;;5095691;28;20032;-71
2021/01/18 05:28:08;;;;;;;57.38;27.77;;;;;;;;;;5095603;28;20458;-71
2021/01/18 05:30:36;;;;;;;55.97;28.27;;;;;;;;;;5095517;28;20647;-71
2021/01/18 05:33:08;;;;;;;64.07;30.35;;;;;;;;;;5095402;28;20355;-71
2021/01/18 05:35:47;;;;;;;55.53;27.70;;;;;;;;;;5095195;28;20378;-71
2021/01/18 05:38:13;;;;;;;56.85;27.42;;;;;;;;;;5095528;28;20036;-71
2021/01/18 05:40:45;;;;;;;57.28;28.67;;;;;;;;;;5095217;28;20101;-71
2021/01/18 05:43:14;;;;;;;45.83;24.92;;;;;;;;;;5095367;28;20028;-71
2021/01/18 05:45:41;;;;;;;46.97;25.83;;;;;;;;;;5095204;28;20409;-71
2021/01/18 05:48:09;;;;;;;43.30;24.10;;;;;;;;;;5095185;28;20042;-71
2021/01/18 05:50:36;;;;;;;47.92;25.90;;;;;;;;;;5094483;28;20481;-71
2021/01/18 05:53:06;;;;;;;50.00;25.17;;;;;;;;;;5093244;28;20044;-71
2021/01/18 05:55:31;;;;;;;44.13;24.58;;;;;;;;;;5094962;28;20031;-71
2021/01/18 05:58:02;;;;;;;42.80;23.40;;;;;;;;;;5094791;28;20047;-71
2021/01/18 06:00:38;;;;;;;60.15;25.52;;;;;;;;;;5094966;28;20139;-71
2021/01/18 06:03:08;;;;;;;45.95;24.73;;;;;;;;;;5095006;28;20044;-71
2021/01/18 06:05:36;;;;;;;47.03;23.40;;;;;;;;;;5093630;28;20093;-71
2021/01/18 06:08:17;;;;;;;39.05;21.63;;;;;;;;;;5094752;28;20036;-71
2021/01/18 06:10:44;;;;;;;37.42;21.02;;;;;;;;;;5094826;28;20032;-71
2021/01/18 06:13:22;;;;;;;39.78;21.02;;;;;;;;;;5094266;28;20040;-71
2021/01/18 06:16:03;;;;;;;39.78;22.08;;;;;;;;;;5093072;28;20059;-71
2021/01/18 06:18:33;;;;;;;44.42;23.15;;;;;;;;;;5094337;28;20096;-71
2021/01/18 06:21:00;;;;;;;46.03;23.40;;;;;;;;;;5094610;28;20040;-71
2021/01/18 06:23:26;;;;;;;35.38;21.30;;;;;;;;;;5092075;28;20028;-71
2021/01/18 06:25:53;;;;;;;37.45;20.60;;;;;;;;;;5094678;28;20114;-71
2021/01/18 06:28:33;;;;;;;38.70;19.50;;;;;;;;;;5094385;28;20547;-71
2021/01/18 06:31:05;;;;;;;32.78;18.42;;;;;;;;;;5094275;28;20032;-71
2021/01/18 06:33:43;;;;;;;37.67;19.75;;;;;;;;;;5094231;28;20032;-71
2021/01/18 06:36:14;;;;;;;33.97;18.15;;;;;;;;;;5094064;28;20028;-71
2021/01/18 06:39:03;;;;;;;41.72;21.30;;;;;;;;;;5093989;28;20465;-71
2021/01/18 06:41:33;;;;;;;44.40;21.27;;;;;;;;;;5079779;28;20044;-71
2021/01/18 06:43:59;;;;;;;45.63;23.30;;;;;;;;;;5092922;28;20043;-71
2021/01/18 06:46:29;;;;;;;44.80;23.67;;;;;;;;;;5092908;28;20127;-71
2021/01/18 06:48:54;;;;;;;52.72;27.02;;;;;;;;;;5094094;28;20390;-71
2021/01/18 06:51:22;;;;;;;41.67;22.50;;;;;;;;;;5093706;28;20036;-71
2021/01/18 06:53:50;;;;;;;41.60;21.38;;;;;;;;;;5093925;28;20071;-71
2021/01/18 06:56:21;;;;;;;39.95;20.83;;;;;;;;;;5093910;28;20040;-71
2021/01/18 06:59:15;;;;;;;50.05;23.95;;;;;;;;;;5092270;28;20699;-71
2021/01/18 07:01:46;;;;;;;47.90;23.42;;;;;;;;;;5093747;28;20493;-71
2021/01/18 07:04:14;;;;;;;53.63;22.30;;;;;;;;;;5093904;28;20085;-71
2021/01/18 07:06:43;;;;;;;39.97;21.45;;;;;;;;;;5093798;28;20036;-71
2021/01/18 07:09:10;;;;;;;38.67;19.23;;;;;;;;;;5093732;28;20032;-70
2021/01/18 07:11:36;;;;;;;35.70;17.95;;;;;;;;;;5093712;28;20028;-71
2021/01/18 07:14:04;;;;;;;37.03;17.80;;;;;;;;;;5091284;28;20036;-71
2021/01/18 07:16:30;;;;;;;37.90;17.75;;;;;;;;;;5093634;28;20036;-70
2021/01/18 07:19:00;;;;;;;41.53;19.58;;;;;;;;;;5093879;28;20028;-71
2021/01/18 07:21:29;;;;;;;39.90;20.88;;;;;;;;;;5093593;28;20040;-71
2021/01/18 07:23:55;;;;;;;48.55;22.05;;;;;;;;;;5093484;28;20024;-71
2021/01/18 07:26:49;;;;;;;46.42;21.45;;;;;;;;;;5092453;28;20075;-71
2021/01/18 07:29:17;;;;;;;41.72;21.63;;;;;;;;;;5072777;28;20040;-72
2021/01/18 07:31:45;;;;;;;39.70;19.40;;;;;;;;;;5072801;28;20043;-71
2021/01/18 07:34:20;;;;;;;49.53;25.75;;;;;;;;;;5073046;28;20064;-71
2021/01/18 07:36:46;;;;;;;55.75;29.60;;;;;;;;;;5073360;28;20458;-70
2021/01/18 07:39:29;;;;;;;46.00;23.80;;;;;;;;;;5072934;28;20136;-70
2021/01/18 07:41:55;;;;;;;39.70;21.58;;;;;;;;;;5073021;28;20039;-70
2021/01/18 07:44:41;;;;;;;36.38;21.17;;;;;;;;;;5072457;28;20044;-71
2021/01/18 07:47:11;;;;;;;32.55;17.23;;;;;;;;;;5071951;28;20127;-72
2021/01/18 07:49:38;;;;;;;36.95;16.25;;;;;;;;;;5073263;28;20044;-72
2021/01/18 07:52:17;;;;;;;26.13;14.75;;;;;;;;;;5093063;28;20435;-71
2021/01/18 07:54:43;;;;;;;25.88;12.30;;;;;;;;;;5093184;28;20390;-71
2021/01/18 07:57:27;;;;;;;28.08;11.45;;;;;;;;;;5093068;28;20119;-71
2021/01/18 08:00:17;;;;;;;21.10;11.13;;;;;;;;;;5093211;28;20028;-71
2021/01/18 08:02:44;;;;;;;25.90;10.70;;;;;;;;;;5092110;28;20077;-71
2021/01/18 08:05:27;;;;;;;22.48;12.20;;;;;;;;;;5091635;28;20541;-71
2021/01/18 08:08:33;;;;;;;18.70;10.32;;;;;;;;;;5092999;28;20474;-71
2021/01/18 08:11:04;;;;;;;21.88;12.15;;;;;;;;;;5089845;28;20118;-71
2021/01/18 08:13:54;;;;;;;22.05;11.98;;;;;;;;;;5092903;28;20059;-71
2021/01/18 08:16:19;;;;;;;23.85;13.40;;;;;;;;;;5080985;28;20040;-71
2021/01/18 08:18:52;;;;;;;20.92;10.90;;;;;;;;;;5093038;28;20090;-71
2021/01/18 08:21:33;;;;;;;21.15;12.38;;;;;;;;;;5092702;28;20048;-71
2021/01/18 08:24:22;;;;;;;22.88;12.18;;;;;;;;;;5092969;28;20461;-71
2021/01/18 08:27:08;;;;;;;21.58;11.85;;;;;;;;;;5054560;28;20048;-71
2021/01/18 08:29:50;;;;;;;18.92;11.63;;;;;;;;;;5092769;28;20041;-71
2021/01/18 08:32:31;;;;;;;20.88;11.52;;;;;;;;;;5092740;28;20135;-71
2021/01/18 08:35:03;;;;;;;28.48;14.40;;;;;;;;;;5092894;28;20074;-71
2021/01/18 08:37:30;;;;;;;24.52;11.77;;;;;;;;;;5092633;28;20497;-71
2021/01/18 08:39:57;;;;;;;19.58;12.63;;;;;;;;;;5094050;28;20048;-71
2021/01/18 08:42:27;;;;;;;21.35;12.07;;;;;;;;;;5095555;28;20107;-71
2021/01/18 08:45:19;;;;;;;21.38;12.15;;;;;;;;;;5095153;28;20097;-72
2021/01/18 08:47:52;;;;;;;32.22;16.25;;;;;;;;;;5096493;28;20028;-71
2021/01/18 08:50:23;;;;;;;32.88;18.38;;;;;;;;;;5096434;28;20044;-71
2021/01/18 08:52:55;;;;;;;27.35;14.07;;;;;;;;;;5096364;28;20032;-71
2021/01/18 08:55:30;;;;;;;21.90;13.88;;;;;;;;;;5096180;28;20048;-71
2021/01/18 08:57:59;;;;;;;31.63;14.07;;;;;;;;;;5096136;28;20032;-71
2021/01/18 09:00:46;;;;;;;21.70;12.57;;;;;;;;;;5096035;28;20067;-71
2021/01/18 09:03:21;;;;;;;26.83;13.77;;;;;;;;;;5096076;28;20039;-71
2021/01/18 09:05:54;;;;;;;20.90;11.88;;;;;;;;;;5096006;28;20039;-71
2021/01/18 09:08:21;;;;;;;19.85;11.88;;;;;;;;;;5096009;28;20054;-71
2021/01/18 09:10:54;;;;;;;18.33;11.73;;;;;;;;;;5096059;28;20020;-72
2021/01/18 09:13:26;;;;;;;15.82;10.30;;;;;;;;;;5094962;28;20051;-72
2021/01/18 09:15:53;;;;;;;24.10;11.32;;;;;;;;;;5095539;28;20527;-72
2021/01/18 09:18:19;;;;;;;20.95;11.13;;;;;;;;;;5095736;28;20039;-72
2021/01/18 09:20:45;;;;;;;24.00;11.25;;;;;;;;;;5094498;28;20036;-75
2021/01/18 09:23:12;;;;;;;20.48;11.20;;;;;;;;;;5094528;28;20028;-74
2021/01/18 09:25:38;;;;;;;17.65;10.40;;;;;;;;;;5095724;28;20051;-75
2021/01/18 09:28:08;;;;;;;21.30;10.68;;;;;;;;;;5093780;28;20037;-74
2021/01/18 09:30:34;;;;;;;27.17;11.90;;;;;;;;;;5095325;28;20040;-75
2021/01/18 09:33:02;;;;;;;21.65;13.35;;;;;;;;;;5096082;28;20036;-79
2021/01/18 09:35:30;;;;;;;28.45;12.55;;;;;;;;;;5095955;28;20115;-74
2021/01/18 09:37:56;;;;;;;24.02;10.38;;;;;;;;;;5095492;28;20036;-75
2021/01/18 09:40:22;;;;;;;19.50;10.32;;;;;;;;;;5095287;28;20028;-74
2021/01/18 09:42:52;;;;;;;16.58;10.07;;;;;;;;;;5095474;28;20063;-75
2021/01/18 09:45:17;;;;;;;22.20;11.10;;;;;;;;;;5094620;28;20048;-75
2021/01/18 09:47:43;;;;;;;15.75;9.68;;;;;;;;;;5096114;28;20367;-76
2021/01/18 09:50:13;;;;;;;14.48;9.88;;;;;;;;;;5077018;28;20123;-76
2021/01/18 09:52:40;;;;;;;17.15;9.40;;;;;;;;;;5093106;28;20027;-76
2021/01/18 09:55:17;;;;;;;18.10;10.07;;;;;;;;;;5094904;28;20046;-76
2021/01/18 09:57:47;;;;;;;18.65;10.95;;;;;;;;;;5095219;28;20377;-74
2021/01/18 10:00:14;;;;;;;23.95;11.35;;;;;;;;;;5094876;28;20028;-73
2021/01/18 10:02:42;;;;;;;22.30;11.68;;;;;;;;;;5094917;28;20062;-74
2021/01/18 10:05:10;;;;;;;25.60;12.43;;;;;;;;;;5094824;28;20076;-73
2021/01/18 10:07:43;;;;;;;28.00;11.77;;;;;;;;;;5094791;28;20024;-73
2021/01/18 10:10:08;;;;;;;19.85;11.90;;;;;;;;;;5094506;28;20145;-74
2021/01/18 10:12:37;;;;;;;21.70;11.90;;;;;;;;;;5093885;28;20107;-73
2021/01/18 10:15:04;;;;;;;22.08;11.50;;;;;;;;;;5094714;28;20027;-73
2021/01/18 10:17:31;;;;;;;19.52;11.10;;;;;;;;;;5094660;28;20491;-73
2021/01/18 10:20:11;;;;;;;18.75;11.48;;;;;;;;;;5094261;28;20100;-74
2021/01/18 10:22:37;;;;;;;18.80;10.45;;;;;;;;;;5094341;28;20509;-72
2021/01/18 10:25:10;;;;;;;22.05;10.90;;;;;;;;;;5093640;28;20020;-73
2021/01/18 10:27:36;;;;;;;18.55;10.05;;;;;;;;;;5094640;28;20028;-72
2021/01/18 10:30:15;;;;;;;17.77;10.63;;;;;;;;;;5094300;28;20047;-73
2021/01/18 10:32:42;;;;;;;15.23;9.82;;;;;;;;;;5094544;28;20101;-76
2021/01/18 10:35:37;;;;;;;18.92;11.82;;;;;;;;;;5093886;28;20043;-76
2021/01/18 10:38:13;;;;;;;14.23;9.73;;;;;;;;;;5094603;28;20532;-76
2021/01/18 10:40:40;;;;;;;17.30;10.00;;;;;;;;;;5093860;28;20089;-76
2021/01/18 10:43:06;;;;;;;15.77;10.32;;;;;;;;;;5093983;28;20035;-75
2021/01/18 10:45:37;;;;;;;25.48;12.25;;;;;;;;;;5092916;28;20040;-74
2021/01/18 10:48:03;;;;;;;21.05;10.98;;;;;;;;;;5094333;28;20027;-75
2021/01/18 10:50:30;;;;;;;24.17;13.07;;;;;;;;;;5093872;28;20038;-75
2021/01/18 10:53:09;;;;;;;22.50;12.90;;;;;;;;;;5093891;28;20123;-75
2021/01/18 10:55:36;;;;;;;25.02;11.32;;;;;;;;;;5093876;28;20109;-76
2021/01/18 10:58:03;;;;;;;21.73;11.82;;;;;;;;;;5093617;28;20042;-77
2021/01/18 11:00:30;;;;;;;28.38;12.45;;;;;;;;;;5094210;28;20036;-76
2021/01/18 11:02:56;;;;;;;24.02;12.40;;;;;;;;;;5093693;28;20101;-77
2021/01/18 11:05:32;;;;;;;19.10;12.00;;;;;;;;;;5095016;28;20539;-77
2021/01/18 11:08:06;;;;;;;24.13;13.18;;;;;;;;;;5095640;28;20043;-77
2021/01/18 11:10:39;;;;;;;21.38;12.07;;;;;;;;;;5094396;28;20537;-76
2021/01/18 11:13:13;;;;;;;25.70;12.73;;;;;;;;;;5094352;28;20085;-77
2021/01/18 11:15:41;;;;;;;32.55;15.57;;;;;;;;;;5094662;28;20051;-76
2021/01/18 11:18:09;;;;;;;22.85;13.43;;;;;;;;;;5093824;28;20462;-74
2021/01/18 11:20:35;;;;;;;22.50;12.93;;;;;;;;;;5092308;28;20469;-77
2021/01/18 11:23:01;;;;;;;31.60;15.10;;;;;;;;;;5093543;28;20074;-75
2021/01/18 11:25:29;;;;;;;24.88;13.20;;;;;;;;;;5093552;28;20076;-74
2021/01/18 11:28:15;;;;;;;21.95;11.48;;;;;;;;;;5082110;28;20879;-75
2021/01/18 11:30:41;;;;;;;22.70;13.20;;;;;;;;;;5073200;28;20033;-76
2021/01/18 11:33:09;;;;;;;20.38;11.57;;;;;;;;;;5073319;28;20043;-76
2021/01/18 11:35:36;;;;;;;18.90;11.98;;;;;;;;;;5073127;28;20101;-75
2021/01/18 11:38:02;;;;;;;20.38;10.65;;;;;;;;;;5073074;28;20040;-75
2021/01/18 11:40:27;;;;;;;17.27;11.60;;;;;;;;;;5071762;28;20033;-76
2021/01/18 11:42:56;;;;;;;18.23;11.55;;;;;;;;;;5073115;28;20067;-76
2021/01/18 11:45:22;;;;;;;17.60;11.43;;;;;;;;;;5073508;28;20049;-76
2021/01/18 11:47:47;;;;;;;15.25;10.32;;;;;;;;;;5073423;28;20045;-75
2021/01/18 11:50:13;;;;;;;21.15;11.73;;;;;;;;;;5072378;28;20075;-75
2021/01/18 11:52:42;;;;;;;14.15;9.70;;;;;;;;;;5086289;28;20063;-75
2021/01/18 11:55:09;;;;;;;17.15;10.30;;;;;;;;;;5093311;28;20043;-76
2021/01/18 11:57:35;;;;;;;24.25;14.23;;;;;;;;;;5093623;28;20191;-73
2021/01/18 12:00:00;;;;;;;19.42;13.13;;;;;;;;;;5093179;28;20058;-74
2021/01/18 12:02:26;;;;;;;17.98;11.70;;;;;;;;;;5092116;28;20158;-74
2021/01/18 12:04:51;;;;;;;25.38;12.90;;;;;;;;;;5093286;28;20492;-76
2021/01/18 12:07:16;;;;;;;16.92;11.93;;;;;;;;;;5092928;28;20925;-76
2021/01/18 12:09:42;;;;;;;16.35;10.82;;;;;;;;;;5093421;28;20439;-76
2021/01/18 12:12:08;;;;;;;23.05;13.63;;;;;;;;;;5093203;28;20114;-74
2021/01/18 12:14:33;;;;;;;23.45;11.40;;;;;;;;;;5093619;28;20036;-75
2021/01/18 12:17:01;;;;;;;17.20;11.30;;;;;;;;;;5097018;28;20042;-75
2021/01/18 12:19:27;;;;;;;14.73;10.60;;;;;;;;;;5097825;28;20072;-77
2021/01/18 12:21:53;;;;;;;19.42;11.05;;;;;;;;;;5097897;28;20063;-75
2021/01/18 12:24:18;;;;;;;20.17;9.65;;;;;;;;;;5098017;28;20462;-77
2021/01/18 12:26:44;;;;;;;57.17;29.63;;;;;;;;;;5096550;28;20036;-77
2021/01/18 12:29:09;;;;;;;83.90;48.03;;;;;;;;;;5096396;28;20119;-77
2021/01/18 12:31:36;;;;;;;45.30;26.30;;;;;;;;;;5097261;28;20035;-76
2021/01/18 12:34:03;;;;;;;28.20;16.40;;;;;;;;;;5096337;28;20047;-75
2021/01/18 12:36:28;;;;;;;21.67;12.88;;;;;;;;;;5096408;28;20044;-74
2021/01/18 12:38:54;;;;;;;15.82;9.68;;;;;;;;;;5096858;28;20032;-74
2021/01/18 12:41:19;;;;;;;16.88;8.73;;;;;;;;;;5095633;28;20036;-73
2021/01/18 12:43:45;;;;;;;22.50;8.43;;;;;;;;;;5096186;28;20040;-73
2021/01/18 12:46:10;;;;;;;13.98;8.48;;;;;;;;;;5096353;28;20058;-73
2021/01/18 12:48:35;;;;;;;17.42;8.60;;;;;;;;;;5095230;28;20123;-72
2021/01/18 12:51:01;;;;;;;15.65;7.85;;;;;;;;;;5096378;28;20032;-73
2021/01/18 12:53:45;;;;;;;19.70;8.60;;;;;;;;;;5095151;28;20040;-73
2021/01/18 12:56:12;;;;;;;20.30;8.57;;;;;;;;;;5096212;28;20442;-72
2021/01/18 12:58:38;;;;;;;16.35;9.07;;;;;;;;;;5096118;28;20074;-72
2021/01/18 13:01:03;;;;;;;17.38;8.77;;;;;;;;;;5094999;28;20056;-72
2021/01/18 13:03:29;;;;;;;18.17;9.98;;;;;;;;;;5096139;28;20466;-72
2021/01/18 13:05:54;;;;;;;23.80;10.95;;;;;;;;;;5096082;28;20097;-73
2021/01/18 13:08:20;;;;;;;20.98;9.98;;;;;;;;;;5095967;28;20035;-73
2021/01/18 13:10:45;;;;;;;22.83;9.57;;;;;;;;;;5094858;28;20024;-73
2021/01/18 13:13:11;;;;;;;18.52;9.23;;;;;;;;;;5095831;28;20040;-73
2021/01/18 13:15:36;;;;;;;18.02;9.30;;;;;;;;;;5094976;28;20048;-73
2021/01/18 13:18:02;;;;;;;15.30;7.85;;;;;;;;;;5095405;28;20043;-73
2021/01/18 13:20:28;;;;;;;17.02;7.35;;;;;;;;;;5095734;28;20496;-73
2021/01/18 13:22:54;;;;;;;15.98;8.00;;;;;;;;;;5094824;28;20032;-72
2021/01/18 13:25:20;;;;;;;12.85;7.35;;;;;;;;;;5095434;28;20039;-73
2021/01/18 13:27:45;;;;;;;12.32;7.20;;;;;;;;;;5095603;28;20032;-73
2021/01/18 13:30:11;;;;;;;20.70;8.18;;;;;;;;;;5094402;28;20119;-73
2021/01/18 13:32:36;;;;;;;22.83;7.88;;;;;;;;;;5095505;28;20038;-73
2021/01/18 13:35:05;;;;;;;17.10;7.20;;;;;;;;;;5095212;28;20120;-73
2021/01/18 13:37:30;;;;;;;18.35;8.05;;;;;;;;;;5094759;28;20055;-73
2021/01/18 13:39:55;;;;;;;25.38;8.88;;;;;;;;;;5094151;28;20035;-73
2021/01/18 13:42:21;;;;;;;22.88;8.68;;;;;;;;;;5094436;28;20113;-74
2021/01/18 13:44:46;;;;;;;15.68;7.55;;;;;;;;;;5095170;28;20452;-73
2021/01/18 13:47:15;;;;;;;15.70;7.25;;;;;;;;;;5094118;28;20046;-73
2021/01/18 13:49:41;;;;;;;19.55;7.55;;;;;;;;;;5095085;28;20039;-73
2021/01/18 13:52:06;;;;;;;17.30;6.70;;;;;;;;;;5095110;28;20030;-73
2021/01/18 13:54:31;;;;;;;15.07;7.32;;;;;;;;;;5094071;28;20462;-73
2021/01/18 13:56:57;;;;;;;13.32;6.50;;;;;;;;;;5095160;28;20048;-73
2021/01/18 13:59:24;;;;;;;14.93;6.32;;;;;;;;;;5094944;28;20032;-73
2021/01/18 14:01:49;;;;;;;13.82;6.90;;;;;;;;;;5094018;28;20397;-73
2021/01/18 14:04:15;;;;;;;17.13;7.28;;;;;;;;;;5095041;28;20028;-73
2021/01/18 14:06:41;;;;;;;16.75;6.47;;;;;;;;;;5093676;28;20493;-73
2021/01/18 14:09:11;;;;;;;15.85;6.82;;;;;;;;;;5093730;28;20036;-73
2021/01/18 14:11:39;;;;;;;18.80;6.80;;;;;;;;;;5093659;28;20043;-73
2021/01/18 14:14:06;;;;;;;13.35;6.22;;;;;;;;;;5093330;28;20088;-73
2021/01/18 14:16:31;;;;;;;11.63;5.50;;;;;;;;;;5093390;28;20038;-73
2021/01/18 14:18:58;;;;;;;11.98;5.75;;;;;;;;;;5094864;28;20114;-73
2021/01/18 14:21:24;;;;;;;16.27;5.32;;;;;;;;;;5093626;28;20105;-73
2021/01/18 14:23:50;;;;;;;13.13;5.57;;;;;;;;;;5094705;28;20024;-73
2021/01/18 14:26:23;;;;;;;21.40;5.68;;;;;;;;;;5093345;28;20031;-73
2021/01/18 14:28:48;;;;;;;17.55;6.38;;;;;;;;;;5094160;28;20039;-73
2021/01/18 14:31:25;;;;;;;18.40;5.78;;;;;;;;;;5093106;28;20512;-74
2021/01/18 14:33:51;;;;;;;20.13;6.03;;;;;;;;;;5094271;28;20044;-73